createdAt,value
2022-10-28T00:00:00.269Z,9.37
2022-10-28T00:03:02.532Z,11.33
2022-10-28T00:06:07.071Z,7.23
2022-10-28T00:09:12.092Z,14.77
2022-10-28T00:12:14.105Z,5.53
2022-10-28T00:15:15.938Z,7.80
2022-10-28T00:18:17.569Z,5.80
2022-10-28T00:21:22.118Z,4.07
2022-10-28T00:24:23.868Z,5.70
2022-10-28T00:27:25.564Z,9.60
2022-10-28T00:30:27.245Z,8.37
2022-10-28T00:33:28.908Z,11.03
2022-10-28T00:36:36.037Z,11.30
2022-10-28T00:39:37.731Z,18.57
2022-10-28T00:42:39.381Z,9.37
2022-10-28T00:45:41.117Z,7.97
2022-10-28T00:48:45.373Z,8.30
2022-10-28T00:51:51.525Z,8.23
2022-10-28T00:54:53.984Z,8.17
2022-10-28T00:57:57.406Z,6.10
2022-10-28T01:00:59.151Z,7.90
2022-10-28T01:04:01.357Z,7.53
2022-10-28T01:07:03.072Z,9.50
2022-10-28T01:10:05.787Z,7.17
2022-10-28T01:13:38.703Z,6.20
2022-10-28T01:17:13.155Z,5.33
2022-10-28T01:20:20.698Z,5.13
2022-10-28T01:23:48.210Z,13.43
2022-10-28T01:27:00.746Z,6.17
2022-10-28T01:30:16.473Z,6.30
2022-10-28T01:33:28.536Z,6.43
2022-10-28T01:36:46.849Z,4.50
2022-10-28T01:40:13.572Z,19.03
2022-10-28T01:43:27.468Z,8.70
2022-10-28T01:46:41.202Z,7.17
2022-10-28T01:49:52.406Z,8.53
2022-10-28T01:52:57.566Z,7.23
2022-10-28T01:56:03.838Z,8.00
2022-10-28T01:59:12.553Z,14.23
2022-10-28T02:02:18.252Z,5.53
2022-10-28T02:05:40.895Z,7.60
2022-10-28T02:08:54.675Z,7.20
2022-10-28T02:12:19.957Z,4.93
2022-10-28T02:15:37.456Z,7.47
2022-10-28T02:19:04.310Z,6.17
2022-10-28T02:22:27.227Z,5.03
2022-10-28T02:25:43.313Z,9.30
2022-10-28T02:29:01.757Z,17.13
2022-10-28T02:32:08.004Z,6.70
2022-10-28T02:35:16.571Z,8.73
2022-10-28T02:38:38.271Z,7.17
2022-10-28T02:41:56.272Z,11.43
2022-10-28T02:45:10.680Z,8.17
2022-10-28T02:48:34.925Z,7.20
2022-10-28T02:51:46.440Z,6.60
2022-10-28T02:54:54.088Z,9.30
2022-10-28T02:57:57.619Z,9.03
2022-10-28T03:00:59.332Z,8.50
2022-10-28T03:04:01.027Z,9.47
2022-10-28T03:07:02.721Z,7.30
2022-10-28T03:10:04.869Z,6.20
2022-10-28T03:13:06.541Z,6.83
2022-10-28T03:16:08.270Z,9.20
2022-10-28T03:19:10.013Z,8.87
2022-10-28T03:22:11.765Z,7.77
2022-10-28T03:25:13.480Z,14.20
2022-10-28T03:28:15.185Z,16.40
2022-10-28T03:31:17.077Z,9.83
2022-10-28T03:34:18.772Z,7.53
2022-10-28T03:37:20.421Z,13.87
2022-10-28T03:40:22.088Z,8.07
2022-10-28T03:43:23.967Z,5.80
2022-10-28T03:46:25.638Z,12.07
2022-10-28T03:49:27.678Z,10.47
2022-10-28T03:52:29.358Z,9.43
2022-10-28T03:55:31.034Z,9.67
2022-10-28T03:58:35.117Z,6.50
2022-10-28T04:01:39.312Z,7.77
2022-10-28T04:04:41.380Z,7.40
2022-10-28T04:07:43.037Z,11.33
2022-10-28T04:10:47.454Z,6.33
2022-10-28T04:13:49.383Z,13.63
2022-10-28T04:16:51.022Z,5.47
2022-10-28T04:19:52.738Z,11.33
2022-10-28T04:22:57.099Z,5.93
2022-10-28T04:25:59.054Z,5.77
2022-10-28T04:29:00.680Z,7.17
2022-10-28T04:32:02.580Z,7.00
2022-10-28T04:35:04.585Z,4.87
2022-10-28T05:28:59.099Z,11.40
2022-10-28T05:32:00.843Z,11.07
2022-10-28T05:35:02.869Z,8.80
2022-10-28T05:38:04.833Z,7.00
2022-10-28T05:41:06.500Z,7.27
2022-10-28T05:44:08.132Z,9.23
2022-10-28T05:47:09.748Z,7.03
2022-10-28T05:50:12.900Z,7.93
2022-10-28T05:53:15.017Z,6.73
2022-10-28T05:56:17.638Z,6.20
2022-10-28T06:03:35.722Z,13.47
2022-10-28T06:06:37.427Z,6.47
2022-10-28T06:09:39.069Z,5.53
2022-10-28T06:12:39.460Z,7.77
2022-10-28T06:15:41.185Z,7.67
2022-10-28T06:18:42.840Z,11.90
2022-10-28T06:21:44.447Z,6.73
2022-10-28T06:24:46.111Z,5.80
2022-10-28T06:27:58.513Z,7.10
2022-10-28T06:31:04.758Z,10.57
2022-10-28T06:34:08.271Z,10.13
2022-10-28T06:37:09.970Z,8.90
2022-10-28T06:40:11.640Z,16.50
2022-10-28T06:43:13.982Z,10.43
2022-10-28T06:46:15.760Z,14.97
2022-10-28T06:49:19.011Z,9.23
2022-10-28T06:52:20.660Z,6.57
2022-10-28T06:55:22.421Z,8.83
2022-10-28T06:58:25.161Z,9.40
2022-10-28T07:01:26.933Z,8.50
2022-10-28T07:04:28.647Z,8.40
2022-10-28T07:07:30.262Z,13.90
2022-10-28T07:10:32.017Z,9.37
2022-10-28T07:13:34.384Z,10.70
2022-10-28T07:16:36.491Z,9.67
2022-10-28T07:19:38.162Z,12.60
2022-10-28T07:22:39.806Z,15.27
2022-10-28T07:25:41.933Z,9.70
2022-10-28T07:28:43.602Z,12.53
2022-10-28T07:31:45.291Z,7.87
2022-10-28T07:34:47.062Z,15.07
2022-10-28T07:37:48.693Z,6.40
2022-10-28T07:40:50.343Z,9.03
2022-10-28T07:43:52.165Z,9.90
2022-10-28T07:46:57.188Z,12.33
2022-10-28T07:49:59.979Z,10.10
2022-10-28T07:53:01.693Z,7.73
2022-10-28T07:56:07.193Z,12.27
2022-10-28T07:59:08.890Z,10.23
2022-10-28T08:02:17.323Z,22.70
2022-10-28T08:05:19.011Z,15.47
2022-10-28T08:08:20.650Z,11.87
2022-10-28T08:11:23.881Z,13.07
2022-10-28T08:14:25.594Z,16.47
2022-10-28T08:17:27.227Z,13.17
2022-10-28T08:20:28.915Z,17.60
2022-10-28T08:23:30.606Z,14.83
2022-10-28T08:26:32.302Z,19.90
2022-10-28T08:29:33.931Z,12.30
2022-10-28T08:32:35.589Z,18.07
2022-10-28T08:35:37.297Z,24.07
2022-10-28T08:38:44.942Z,14.97
2022-10-28T08:42:26.611Z,13.20
2022-10-28T08:45:46.980Z,11.03
2022-10-28T08:48:48.882Z,17.90
2022-10-28T08:52:19.830Z,14.60
2022-10-28T08:55:33.847Z,13.10
2022-10-28T08:58:38.993Z,16.53
2022-10-28T09:02:03.368Z,14.40
2022-10-28T09:05:26.750Z,10.13
2022-10-28T09:08:31.373Z,15.30
2022-10-28T09:12:10.386Z,17.50
2022-10-28T09:15:15.016Z,15.47
2022-10-28T09:18:39.229Z,20.57
2022-10-28T09:22:20.868Z,15.50
2022-10-28T09:25:53.686Z,12.23
2022-10-28T09:29:25.352Z,11.57
2022-10-28T09:32:39.891Z,7.73
2022-10-28T09:35:45.659Z,14.60
2022-10-28T09:38:51.338Z,12.93
2022-10-28T09:41:54.197Z,17.43
2022-10-28T09:45:01.554Z,10.65
2022-10-28T09:48:08.471Z,10.73
2022-10-28T09:51:23.921Z,16.37
2022-10-28T09:54:42.148Z,10.88
2022-10-28T09:57:44.101Z,6.63
2022-10-28T10:00:46.123Z,16.33
2022-10-28T10:03:49.514Z,8.57
2022-10-28T10:06:55.179Z,11.48
2022-10-28T10:09:59.760Z,12.05
2022-10-28T10:13:04.642Z,11.20
2022-10-28T10:16:19.763Z,9.93
2022-10-28T10:19:21.590Z,11.85
2022-10-28T10:22:43.758Z,11.63
2022-10-28T10:25:45.550Z,9.15
2022-10-28T10:28:49.293Z,10.57
2022-10-28T10:32:12.711Z,17.10
2022-10-28T10:35:19.831Z,9.25
2022-10-28T10:38:21.731Z,8.30
2022-10-28T10:41:44.297Z,13.70
2022-10-28T10:44:56.492Z,14.80
2022-10-28T10:48:14.950Z,6.78
2022-10-28T10:51:24.015Z,8.30
2022-10-28T10:54:27.763Z,9.73
2022-10-28T10:57:30.482Z,14.73
2022-10-28T11:00:45.046Z,10.35
2022-10-28T11:03:55.604Z,17.95
2022-10-28T11:06:58.232Z,10.50
2022-10-28T11:10:01.472Z,21.25
2022-10-28T11:13:15.482Z,12.57
2022-10-28T11:16:23.270Z,6.10
2022-10-28T11:19:33.695Z,11.77
2022-10-28T11:22:47.576Z,13.57
2022-10-28T11:26:01.218Z,10.88
2022-10-28T11:29:15.517Z,9.52
2022-10-28T11:33:01.706Z,9.75
2022-10-28T11:36:41.151Z,12.35
2022-10-28T11:40:25.445Z,8.70
2022-10-28T11:43:42.768Z,12.43
2022-10-28T11:47:05.049Z,9.88
2022-10-28T11:50:27.824Z,8.45
2022-10-28T11:53:48.316Z,6.88
2022-10-28T11:56:59.043Z,13.63
2022-10-28T12:00:14.631Z,10.48
2022-10-28T12:03:34.944Z,6.20
2022-10-28T12:07:14.318Z,12.77
2022-10-28T12:10:54.399Z,8.45
2022-10-28T12:14:32.041Z,15.45
2022-10-28T12:17:46.119Z,9.88
2022-10-28T12:20:58.768Z,9.27
2022-10-28T12:24:01.255Z,12.45
2022-10-28T12:27:19.699Z,7.35
2022-10-28T12:30:31.568Z,11.00
2022-10-28T12:33:34.886Z,9.13
2022-10-28T12:36:52.761Z,10.27
2022-10-28T12:40:01.846Z,11.07
2022-10-28T12:43:39.679Z,5.80
2022-10-28T12:47:06.739Z,11.30
2022-10-28T12:50:08.318Z,10.45
2022-10-28T12:53:53.212Z,12.68
2022-10-28T12:57:17.898Z,10.05
2022-10-28T13:00:28.091Z,13.88
2022-10-28T13:03:31.283Z,10.13
2022-10-28T13:07:03.720Z,10.68
2022-10-28T13:10:11.369Z,13.65
2022-10-28T13:13:46.268Z,10.13
2022-10-28T13:17:21.889Z,14.02
2022-10-28T13:20:38.815Z,10.43
2022-10-28T13:24:11.192Z,18.60
2022-10-28T13:27:14.212Z,9.70
2022-10-28T13:30:18.162Z,10.90
2022-10-28T13:33:24.756Z,13.50
2022-10-28T13:36:28.025Z,10.43
2022-10-28T13:39:29.648Z,20.95
2022-10-28T13:42:45.787Z,9.27
2022-10-28T13:45:48.242Z,15.25
2022-10-28T13:48:50.353Z,21.10
2022-10-28T13:52:19.111Z,7.80
2022-10-28T13:55:42.869Z,11.50
2022-10-28T13:59:16.159Z,9.57
2022-10-28T14:02:38.749Z,11.73
2022-10-28T14:05:40.573Z,13.10
2022-10-28T14:08:42.647Z,9.55
2022-10-28T14:11:44.343Z,16.20
2022-10-28T14:14:53.791Z,15.88
2022-10-28T14:21:46.950Z,8.73
2022-10-28T14:24:49.634Z,14.77
2022-10-28T14:27:51.476Z,12.27
2022-10-28T14:31:11.665Z,12.98
2022-10-28T14:34:13.422Z,11.75
2022-10-28T14:37:34.620Z,7.72
2022-10-28T14:40:39.003Z,13.05
2022-10-28T14:43:55.567Z,13.75
2022-10-28T14:47:31.123Z,12.15
2022-10-28T14:50:41.666Z,10.05
2022-10-28T14:53:45.368Z,14.18
2022-10-28T14:56:47.943Z,18.67
2022-10-28T14:59:51.422Z,7.78
2022-10-28T15:02:54.380Z,18.88
2022-10-28T15:05:56.422Z,9.63
2022-10-28T15:09:06.099Z,11.57
2022-10-28T15:12:11.676Z,14.32
2022-10-28T15:15:25.933Z,9.23
2022-10-28T15:18:27.564Z,18.05
2022-10-28T15:21:29.212Z,14.05
2022-10-28T15:24:31.414Z,13.77
2022-10-28T15:27:35.893Z,8.85
2022-10-28T15:30:46.523Z,11.55
2022-10-28T15:33:48.647Z,8.73
2022-10-28T15:40:20.332Z,14.77
2022-10-28T15:43:27.783Z,16.95
2022-10-28T15:46:32.006Z,10.43
2022-10-28T15:49:35.418Z,9.98
2022-10-28T15:52:44.618Z,11.80
2022-10-28T15:59:23.071Z,12.68
2022-10-28T16:02:41.360Z,10.73
2022-10-28T16:05:44.934Z,16.08
2022-10-28T16:08:47.365Z,15.80
2022-10-28T16:11:58.673Z,18.77
2022-10-28T16:15:02.034Z,11.57
2022-10-28T16:18:03.775Z,12.35
2022-10-28T16:21:05.765Z,17.25
2022-10-28T16:24:10.108Z,9.10
2022-10-28T16:27:21.175Z,12.15
2022-10-28T16:33:33.037Z,15.35
2022-10-28T16:36:34.720Z,14.35
2022-10-28T16:39:36.333Z,8.85
2022-10-28T16:42:38.520Z,13.73
2022-10-28T16:45:40.160Z,9.90
2022-10-28T16:48:41.857Z,13.95
2022-10-28T16:51:44.515Z,15.77
2022-10-28T16:54:47.123Z,12.10
2022-10-28T16:57:48.802Z,8.23
2022-10-28T17:00:50.457Z,14.02
2022-10-28T17:03:52.087Z,13.27
2022-10-28T17:06:53.726Z,15.33
2022-10-28T17:09:56.827Z,11.80
2022-10-28T17:12:58.570Z,14.00
2022-10-28T17:16:00.247Z,18.23
2022-10-28T17:19:01.861Z,11.25
2022-10-28T17:22:08.963Z,11.65
2022-10-28T17:25:11.973Z,12.90
2022-10-28T17:28:13.605Z,12.60
2022-10-28T17:31:19.144Z,16.40
2022-10-28T17:34:23.808Z,17.40
2022-10-28T17:37:25.487Z,17.03
2022-10-28T17:40:27.205Z,17.13
2022-10-28T17:43:29.039Z,8.60
2022-10-28T17:46:30.702Z,19.37
2022-10-28T17:49:34.168Z,13.23
2022-10-28T17:52:38.476Z,8.17
2022-10-28T17:55:42.050Z,12.53
2022-10-28T17:58:43.744Z,12.83
2022-10-28T18:01:45.521Z,13.53
2022-10-28T18:04:47.246Z,10.50
2022-10-28T18:07:48.947Z,12.83
2022-10-28T18:10:55.172Z,20.57
2022-10-28T18:13:56.887Z,12.37
2022-10-28T18:16:58.651Z,14.37
2022-10-28T18:20:01.924Z,9.17
2022-10-28T18:23:03.827Z,9.00
2022-10-28T18:26:07.789Z,19.77
2022-10-28T18:29:10.167Z,9.23
2022-10-28T18:32:12.066Z,18.60
2022-10-28T18:35:13.730Z,19.17
2022-10-28T18:38:15.371Z,13.30
2022-10-28T18:41:25.792Z,13.47
2022-10-28T18:44:31.701Z,19.27
2022-10-28T18:47:34.853Z,15.27
2022-10-28T18:50:36.504Z,24.60
2022-10-28T18:53:40.409Z,31.33
2022-10-28T18:56:46.213Z,35.47
2022-10-28T19:00:16.810Z,36.37
2022-10-28T19:03:19.912Z,38.97
2022-10-28T19:06:22.676Z,42.37
2022-10-28T19:09:24.399Z,43.97
2022-10-28T19:12:26.067Z,49.07
2022-10-28T19:15:27.754Z,50.13
2022-10-28T19:18:29.516Z,41.90
2022-10-28T19:21:31.700Z,43.23
2022-10-28T19:24:33.403Z,31.17
2022-10-28T19:27:35.091Z,40.30
2022-10-28T19:30:37.543Z,27.33
2022-10-28T19:33:39.599Z,31.33
2022-10-28T19:36:41.272Z,21.70
2022-10-28T19:39:42.897Z,20.37
2022-10-28T19:42:44.591Z,19.47
2022-10-28T19:45:46.304Z,22.37
2022-10-28T19:48:50.229Z,20.83
2022-10-28T19:51:51.887Z,20.57
2022-10-28T19:54:53.532Z,20.43
2022-10-28T19:57:55.735Z,19.47
2022-10-28T20:01:05.425Z,19.27
2022-10-28T20:04:08.724Z,18.33
2022-10-28T20:07:10.399Z,25.77
2022-10-28T20:10:12.032Z,25.97
2022-10-28T20:13:13.667Z,28.30
2022-10-28T20:16:16.163Z,21.37
2022-10-28T20:19:17.838Z,15.20
2022-10-28T20:22:19.495Z,20.33
2022-10-28T20:25:21.142Z,34.77
2022-10-28T20:28:22.811Z,27.53
2022-10-28T20:31:29.364Z,23.83
2022-10-28T20:34:31.053Z,18.87
2022-10-28T20:37:32.686Z,29.20
2022-10-28T20:40:34.396Z,16.33
2022-10-28T20:43:36.019Z,20.50
2022-10-28T20:46:37.733Z,13.80
2022-10-28T20:49:42.583Z,13.17
2022-10-28T20:52:44.203Z,11.93
2022-10-28T20:55:46.268Z,21.27
2022-10-28T20:58:47.956Z,11.33
2022-10-28T21:01:49.911Z,12.70
2022-10-28T21:04:51.685Z,15.30
2022-10-28T21:07:54.675Z,13.00
2022-10-28T21:10:56.531Z,21.03
2022-10-28T21:14:00.443Z,14.83
2022-10-28T21:17:02.190Z,12.87
2022-10-28T21:20:04.303Z,18.03
2022-10-28T21:23:06.355Z,12.90
2022-10-28T21:26:10.286Z,11.27
2022-10-28T21:29:11.904Z,16.00
2022-10-28T21:32:13.533Z,17.60
2022-10-28T21:35:15.611Z,14.33
2022-10-28T21:38:17.965Z,15.40
2022-10-28T21:41:20.986Z,16.47
2022-10-28T21:44:22.613Z,11.40
2022-10-28T21:47:24.369Z,18.77
2022-10-28T21:50:26.010Z,19.63
2022-10-28T21:53:31.016Z,17.77
2022-10-28T21:56:32.771Z,22.00
2022-10-28T21:59:34.413Z,12.87
2022-10-28T22:02:36.181Z,15.17
2022-10-28T22:05:38.005Z,13.03
2022-10-28T22:08:39.938Z,15.63
2022-10-28T22:11:41.607Z,13.63
2022-10-28T22:14:43.238Z,13.27
2022-10-28T22:17:44.935Z,17.67
2022-10-28T22:20:46.608Z,11.67
2022-10-28T22:23:48.755Z,15.40
2022-10-28T22:26:50.402Z,16.70
2022-10-28T22:29:52.102Z,11.27
2022-10-28T22:32:53.946Z,15.73
2022-10-28T22:36:00.584Z,19.13
2022-10-28T22:39:02.321Z,22.67
2022-10-28T22:42:04.086Z,11.47
2022-10-28T22:45:06.247Z,17.07
2022-10-28T22:48:07.894Z,18.60
2022-10-28T22:51:10.203Z,15.73
2022-10-28T22:54:11.818Z,11.77
2022-10-28T22:57:13.516Z,11.63
2022-10-28T23:00:15.570Z,13.33
2022-10-28T23:03:17.473Z,17.87
2022-10-28T23:06:21.821Z,16.10
2022-10-28T23:09:23.520Z,11.30
2022-10-28T23:12:25.278Z,12.93
2022-10-28T23:15:27.545Z,14.07
2022-10-28T23:18:29.207Z,14.30
2022-10-28T23:21:30.875Z,12.73
2022-10-28T23:24:32.532Z,16.23
2022-10-28T23:27:34.245Z,17.60
2022-10-28T23:30:35.876Z,11.90
2022-10-28T23:33:37.498Z,16.27
2022-10-28T23:36:40.020Z,11.27
2022-10-28T23:39:41.645Z,12.80
2022-10-28T23:42:43.298Z,11.67
2022-10-28T23:45:44.930Z,15.03
2022-10-28T23:48:46.602Z,10.33
2022-10-28T23:51:48.305Z,11.63
2022-10-28T23:54:49.951Z,14.03
2022-10-28T23:57:51.590Z,13.17
